Keokuk, Iowa
Current Conditions -  °F | °C
As of 2:35 PM on Thursday 27 Nov 2014 (Local Time) from KEOK Reporting Station
Clear Clear  
Wind Chill: 13°   Ceiling: Unl
Heat Index: 21°   Visibility: 10mi
Dew Point: 10°   Wind: 7mph
Humidity: 63%   Direction: NA
Pressure: 30.47"   Gusts: 13mph
Location:  40.4°N, 91.38°W
Report Text: KEOK 272035Z AUTO VRB06G11KT 10SM CLR M06/M12 A3047 RMK AO2
Loading
Personal Weather Stations






























Interactive Weather Map New forecast layout! Learn more

10-Day Weather Forecast

Advertisements
Track Severe Weather on mobile